sensor_id;sensor_type;location;lat;lon;timestamp;temperature;humidity
19755;DHT22;10036;47.812;9.274;2022-09-12T00:01:09;12.80;99.90
19755;DHT22;10036;47.812;9.274;2022-09-12T00:03:37;12.90;99.90
19755;DHT22;10036;47.812;9.274;2022-09-12T00:06:11;12.90;99.90
19755;DHT22;10036;47.812;9.274;2022-09-12T00:08:38;13.00;99.90
19755;DHT22;10036;47.812;9.274;2022-09-12T00:11:07;12.90;99.90
19755;DHT22;10036;47.812;9.274;2022-09-12T00:13:35;12.80;99.90
19755;DHT22;10036;47.812;9.274;2022-09-12T00:16:02;12.80;99.90
19755;DHT22;10036;47.812;9.274;2022-09-12T00:18:30;12.70;99.90
19755;DHT22;10036;47.812;9.274;2022-09-12T00:21:02;12.70;99.90
19755;DHT22;10036;47.812;9.274;2022-09-12T00:23:31;12.70;99.90
19755;DHT22;10036;47.812;9.274;2022-09-12T00:25:58;12.60;99.90
19755;DHT22;10036;47.812;9.274;2022-09-12T00:28:25;12.70;99.90
19755;DHT22;10036;47.812;9.274;2022-09-12T00:30:52;12.70;99.90
19755;DHT22;10036;47.812;9.274;2022-09-12T00:33:19;12.50;99.90
19755;DHT22;10036;47.812;9.274;2022-09-12T00:35:48;12.50;99.90
19755;DHT22;10036;47.812;9.274;2022-09-12T00:38:18;12.40;99.90
19755;DHT22;10036;47.812;9.274;2022-09-12T00:40:47;12.20;99.90
19755;DHT22;10036;47.812;9.274;2022-09-12T00:45:57;12.20;99.90
19755;DHT22;10036;47.812;9.274;2022-09-12T00:48:31;12.10;99.90
19755;DHT22;10036;47.812;9.274;2022-09-12T00:51:00;12.20;99.90
19755;DHT22;10036;47.812;9.274;2022-09-12T00:53:27;12.20;99.90
19755;DHT22;10036;47.812;9.274;2022-09-12T00:55:56;12.10;99.90
19755;DHT22;10036;47.812;9.274;2022-09-12T00:58:26;12.10;99.90
19755;DHT22;10036;47.812;9.274;2022-09-12T01:00:54;12.20;99.90
19755;DHT22;10036;47.812;9.274;2022-09-12T01:03:22;12.20;99.90
19755;DHT22;10036;47.812;9.274;2022-09-12T01:05:54;12.30;99.90
19755;DHT22;10036;47.812;9.274;2022-09-12T01:08:25;12.40;99.90
19755;DHT22;10036;47.812;9.274;2022-09-12T01:10:53;12.40;99.90
19755;DHT22;10036;47.812;9.274;2022-09-12T01:13:21;12.40;99.90
19755;DHT22;10036;47.812;9.274;2022-09-12T01:15:48;12.40;99.90
19755;DHT22;10036;47.812;9.274;2022-09-12T01:18:19;12.50;99.90
19755;DHT22;10036;47.812;9.274;2022-09-12T01:21:02;12.40;99.90
19755;DHT22;10036;47.812;9.274;2022-09-12T01:27:09;12.30;99.90
19755;DHT22;10036;47.812;9.274;2022-09-12T01:32:44;12.50;99.90
19755;DHT22;10036;47.812;9.274;2022-09-12T01:35:18;12.60;99.90
19755;DHT22;10036;47.812;9.274;2022-09-12T01:37:56;12.50;99.90
19755;DHT22;10036;47.812;9.274;2022-09-12T01:40:32;12.50;99.90
19755;DHT22;10036;47.812;9.274;2022-09-12T01:43:06;12.30;99.90
19755;DHT22;10036;47.812;9.274;2022-09-12T01:45:44;12.40;99.90
19755;DHT22;10036;47.812;9.274;2022-09-12T01:48:16;12.50;99.90
19755;DHT22;10036;47.812;9.274;2022-09-12T01:50:49;12.30;99.90
19755;DHT22;10036;47.812;9.274;2022-09-12T01:53:21;12.30;99.90
19755;DHT22;10036;47.812;9.274;2022-09-12T01:55:55;12.30;99.90
19755;DHT22;10036;47.812;9.274;2022-09-12T01:58:26;12.10;99.90
19755;DHT22;10036;47.812;9.274;2022-09-12T02:00:59;12.10;99.90
19755;DHT22;10036;47.812;9.274;2022-09-12T02:03:32;12.00;99.90
19755;DHT22;10036;47.812;9.274;2022-09-12T02:06:02;12.00;99.90
19755;DHT22;10036;47.812;9.274;2022-09-12T02:08:37;12.10;99.90
19755;DHT22;10036;47.812;9.274;2022-09-12T02:11:07;12.20;99.90
19755;DHT22;10036;47.812;9.274;2022-09-12T02:13:38;12.30;99.90
19755;DHT22;10036;47.812;9.274;2022-09-12T02:16:09;12.30;99.90
19755;DHT22;10036;47.812;9.274;2022-09-12T02:18:39;12.40;99.90
19755;DHT22;10036;47.812;9.274;2022-09-12T02:21:10;12.40;99.90
19755;DHT22;10036;47.812;9.274;2022-09-12T02:23:40;12.20;99.90
19755;DHT22;10036;47.812;9.274;2022-09-12T02:26:11;12.30;99.90
19755;DHT22;10036;47.812;9.274;2022-09-12T02:28:41;12.20;99.90
19755;DHT22;10036;47.812;9.274;2022-09-12T02:31:13;12.30;99.90
19755;DHT22;10036;47.812;9.274;2022-09-12T02:33:48;12.20;99.90
19755;DHT22;10036;47.812;9.274;2022-09-12T02:36:27;12.20;99.90
19755;DHT22;10036;47.812;9.274;2022-09-12T02:38:58;12.20;99.90
19755;DHT22;10036;47.812;9.274;2022-09-12T02:41:25;12.10;99.90
19755;DHT22;10036;47.812;9.274;2022-09-12T02:43:53;11.90;99.90
19755;DHT22;10036;47.812;9.274;2022-09-12T02:46:24;11.70;99.90
19755;DHT22;10036;47.812;9.274;2022-09-12T02:48:54;11.60;99.90
19755;DHT22;10036;47.812;9.274;2022-09-12T02:51:22;11.40;99.90
19755;DHT22;10036;47.812;9.274;2022-09-12T02:53:49;11.20;99.90
19755;DHT22;10036;47.812;9.274;2022-09-12T02:56:22;11.20;99.90
19755;DHT22;10036;47.812;9.274;2022-09-12T02:58:50;11.40;99.90
19755;DHT22;10036;47.812;9.274;2022-09-12T03:01:28;11.60;99.90
19755;DHT22;10036;47.812;9.274;2022-09-12T03:04:18;11.60;99.90
19755;DHT22;10036;47.812;9.274;2022-09-12T03:06:58;11.40;99.90
19755;DHT22;10036;47.812;9.274;2022-09-12T03:09:34;11.60;99.90
19755;DHT22;10036;47.812;9.274;2022-09-12T03:12:09;11.60;99.90
19755;DHT22;10036;47.812;9.274;2022-09-12T03:14:51;11.40;99.90
19755;DHT22;10036;47.812;9.274;2022-09-12T03:17:32;11.30;99.90
19755;DHT22;10036;47.812;9.274;2022-09-12T03:20:08;11.50;99.90
19755;DHT22;10036;47.812;9.274;2022-09-12T03:22:41;11.60;99.90
19755;DHT22;10036;47.812;9.274;2022-09-12T03:25:14;11.60;99.90
19755;DHT22;10036;47.812;9.274;2022-09-12T03:27:45;11.60;99.90
19755;DHT22;10036;47.812;9.274;2022-09-12T03:30:15;11.50;99.90
19755;DHT22;10036;47.812;9.274;2022-09-12T03:32:45;11.60;99.90
19755;DHT22;10036;47.812;9.274;2022-09-12T03:35:14;11.70;99.90
19755;DHT22;10036;47.812;9.274;2022-09-12T03:37:41;11.70;99.90
19755;DHT22;10036;47.812;9.274;2022-09-12T03:40:09;11.60;99.90
19755;DHT22;10036;47.812;9.274;2022-09-12T03:42:37;11.70;99.90
19755;DHT22;10036;47.812;9.274;2022-09-12T03:45:04;11.70;99.90
19755;DHT22;10036;47.812;9.274;2022-09-12T03:47:31;11.60;99.90
19755;DHT22;10036;47.812;9.274;2022-09-12T03:49:58;11.40;99.90
19755;DHT22;10036;47.812;9.274;2022-09-12T03:52:27;11.10;99.90
19755;DHT22;10036;47.812;9.274;2022-09-12T03:54:53;11.00;99.90
19755;DHT22;10036;47.812;9.274;2022-09-12T03:57:20;11.20;99.90
19755;DHT22;10036;47.812;9.274;2022-09-12T03:59:47;11.10;99.90
19755;DHT22;10036;47.812;9.274;2022-09-12T04:02:15;11.30;99.90
19755;DHT22;10036;47.812;9.274;2022-09-12T04:04:42;11.20;99.90
19755;DHT22;10036;47.812;9.274;2022-09-12T04:07:09;11.00;99.90
19755;DHT22;10036;47.812;9.274;2022-09-12T04:09:38;10.90;99.90
19755;DHT22;10036;47.812;9.274;2022-09-12T04:12:05;10.80;99.90
19755;DHT22;10036;47.812;9.274;2022-09-12T04:14:33;11.10;99.90
19755;DHT22;10036;47.812;9.274;2022-09-12T04:17:00;11.20;99.90
19755;DHT22;10036;47.812;9.274;2022-09-12T04:19:27;11.10;99.90
19755;DHT22;10036;47.812;9.274;2022-09-12T04:21:54;11.10;99.90
19755;DHT22;10036;47.812;9.274;2022-09-12T04:24:20;11.10;99.90
19755;DHT22;10036;47.812;9.274;2022-09-12T04:26:49;11.20;99.90
19755;DHT22;10036;47.812;9.274;2022-09-12T04:29:15;11.20;99.90
19755;DHT22;10036;47.812;9.274;2022-09-12T04:31:43;11.20;99.90
19755;DHT22;10036;47.812;9.274;2022-09-12T04:34:10;11.30;99.90
19755;DHT22;10036;47.812;9.274;2022-09-12T04:36:37;11.10;99.90
19755;DHT22;10036;47.812;9.274;2022-09-12T04:39:04;11.10;99.90
19755;DHT22;10036;47.812;9.274;2022-09-12T04:41:33;11.00;99.90
19755;DHT22;10036;47.812;9.274;2022-09-12T04:44:04;11.00;99.90
19755;DHT22;10036;47.812;9.274;2022-09-12T04:46:33;11.00;99.90
19755;DHT22;10036;47.812;9.274;2022-09-12T04:49:01;11.00;99.90
19755;DHT22;10036;47.812;9.274;2022-09-12T04:51:29;11.00;99.90
19755;DHT22;10036;47.812;9.274;2022-09-12T04:53:57;10.80;99.90
19755;DHT22;10036;47.812;9.274;2022-09-12T04:56:25;10.60;99.90
19755;DHT22;10036;47.812;9.274;2022-09-12T04:58:55;10.40;99.90
19755;DHT22;10036;47.812;9.274;2022-09-12T05:01:23;10.50;99.90
19755;DHT22;10036;47.812;9.274;2022-09-12T05:03:51;10.70;99.90
19755;DHT22;10036;47.812;9.274;2022-09-12T05:06:21;10.80;99.90
19755;DHT22;10036;47.812;9.274;2022-09-12T05:08:49;10.70;99.90
19755;DHT22;10036;47.812;9.274;2022-09-12T05:11:18;10.70;99.90
19755;DHT22;10036;47.812;9.274;2022-09-12T05:13:45;10.80;99.90
19755;DHT22;10036;47.812;9.274;2022-09-12T05:16:13;10.60;99.90
19755;DHT22;10036;47.812;9.274;2022-09-12T05:18:43;10.70;99.90
19755;DHT22;10036;47.812;9.274;2022-09-12T05:21:11;10.70;99.90
19755;DHT22;10036;47.812;9.274;2022-09-12T05:23:39;10.70;99.90
19755;DHT22;10036;47.812;9.274;2022-09-12T05:26:06;10.70;99.90
19755;DHT22;10036;47.812;9.274;2022-09-12T05:28:35;10.70;99.90
19755;DHT22;10036;47.812;9.274;2022-09-12T05:31:04;10.80;99.90
19755;DHT22;10036;47.812;9.274;2022-09-12T05:33:31;10.80;99.90
19755;DHT22;10036;47.812;9.274;2022-09-12T05:36:00;10.80;99.90
19755;DHT22;10036;47.812;9.274;2022-09-12T05:38:27;10.90;99.90
19755;DHT22;10036;47.812;9.274;2022-09-12T05:41:02;10.90;99.90
19755;DHT22;10036;47.812;9.274;2022-09-12T05:43:30;11.00;99.90
19755;DHT22;10036;47.812;9.274;2022-09-12T05:46:00;11.00;99.90
19755;DHT22;10036;47.812;9.274;2022-09-12T05:48:27;11.00;99.90
19755;DHT22;10036;47.812;9.274;2022-09-12T05:51:00;11.00;99.90
19755;DHT22;10036;47.812;9.274;2022-09-12T05:53:28;10.90;99.90
19755;DHT22;10036;47.812;9.274;2022-09-12T05:56:06;10.90;99.90
19755;DHT22;10036;47.812;9.274;2022-09-12T05:58:34;10.80;99.90
19755;DHT22;10036;47.812;9.274;2022-09-12T06:01:02;10.80;99.90
19755;DHT22;10036;47.812;9.274;2022-09-12T06:03:30;10.90;99.90
19755;DHT22;10036;47.812;9.274;2022-09-12T06:06:01;10.90;99.90
19755;DHT22;10036;47.812;9.274;2022-09-12T06:08:29;11.00;99.90
19755;DHT22;10036;47.812;9.274;2022-09-12T06:10:58;11.10;99.90
19755;DHT22;10036;47.812;9.274;2022-09-12T06:13:25;11.20;99.90
19755;DHT22;10036;47.812;9.274;2022-09-12T06:15:52;11.20;99.90
19755;DHT22;10036;47.812;9.274;2022-09-12T06:18:19;11.30;99.90
19755;DHT22;10036;47.812;9.274;2022-09-12T06:20:46;11.40;99.90
19755;DHT22;10036;47.812;9.274;2022-09-12T06:23:14;11.40;99.90
19755;DHT22;10036;47.812;9.274;2022-09-12T06:25:47;11.50;99.90
19755;DHT22;10036;47.812;9.274;2022-09-12T06:28:15;11.50;99.90
19755;DHT22;10036;47.812;9.274;2022-09-12T06:30:42;11.50;99.90
19755;DHT22;10036;47.812;9.274;2022-09-12T06:33:09;11.50;99.90
19755;DHT22;10036;47.812;9.274;2022-09-12T06:35:36;11.60;99.90
19755;DHT22;10036;47.812;9.274;2022-09-12T06:38:04;11.50;99.90
19755;DHT22;10036;47.812;9.274;2022-09-12T06:40:32;11.60;99.90
19755;DHT22;10036;47.812;9.274;2022-09-12T06:42:59;11.60;99.90
19755;DHT22;10036;47.812;9.274;2022-09-12T06:45:26;11.70;99.90
19755;DHT22;10036;47.812;9.274;2022-09-12T06:47:54;11.70;99.90
19755;DHT22;10036;47.812;9.274;2022-09-12T06:50:21;11.80;99.90
19755;DHT22;10036;47.812;9.274;2022-09-12T06:52:48;11.80;99.90
19755;DHT22;10036;47.812;9.274;2022-09-12T06:55:15;11.90;99.90
19755;DHT22;10036;47.812;9.274;2022-09-12T06:57:44;11.90;99.90
19755;DHT22;10036;47.812;9.274;2022-09-12T07:00:12;12.00;99.90
19755;DHT22;10036;47.812;9.274;2022-09-12T07:02:39;12.10;99.90
19755;DHT22;10036;47.812;9.274;2022-09-12T07:05:06;12.20;99.90
19755;DHT22;10036;47.812;9.274;2022-09-12T07:07:35;12.20;99.90
19755;DHT22;10036;47.812;9.274;2022-09-12T07:10:01;12.40;99.90
19755;DHT22;10036;47.812;9.274;2022-09-12T07:12:28;12.40;99.90
19755;DHT22;10036;47.812;9.274;2022-09-12T07:14:57;12.50;99.90
19755;DHT22;10036;47.812;9.274;2022-09-12T07:17:23;12.60;99.90
19755;DHT22;10036;47.812;9.274;2022-09-12T07:19:50;12.60;99.90
19755;DHT22;10036;47.812;9.274;2022-09-12T07:22:17;12.70;99.90
19755;DHT22;10036;47.812;9.274;2022-09-12T07:24:44;12.70;99.90
19755;DHT22;10036;47.812;9.274;2022-09-12T07:27:12;12.80;99.90
19755;DHT22;10036;47.812;9.274;2022-09-12T07:29:39;12.80;99.90
19755;DHT22;10036;47.812;9.274;2022-09-12T07:32:07;12.90;99.90
19755;DHT22;10036;47.812;9.274;2022-09-12T07:34:34;13.00;99.90
19755;DHT22;10036;47.812;9.274;2022-09-12T07:37:01;13.10;99.90
19755;DHT22;10036;47.812;9.274;2022-09-12T07:39:28;13.10;99.90
19755;DHT22;10036;47.812;9.274;2022-09-12T07:41:55;13.20;99.90
19755;DHT22;10036;47.812;9.274;2022-09-12T07:44:24;13.30;99.90
19755;DHT22;10036;47.812;9.274;2022-09-12T07:46:51;13.40;99.90
19755;DHT22;10036;47.812;9.274;2022-09-12T07:49:19;13.40;99.90
19755;DHT22;10036;47.812;9.274;2022-09-12T07:51:46;13.50;99.90
19755;DHT22;10036;47.812;9.274;2022-09-12T07:54:13;13.60;99.90
19755;DHT22;10036;47.812;9.274;2022-09-12T07:56:40;13.70;99.90
19755;DHT22;10036;47.812;9.274;2022-09-12T07:59:08;13.70;99.90
19755;DHT22;10036;47.812;9.274;2022-09-12T08:01:34;13.70;99.90
19755;DHT22;10036;47.812;9.274;2022-09-12T08:04:01;13.80;99.90
19755;DHT22;10036;47.812;9.274;2022-09-12T08:06:31;13.90;99.90
19755;DHT22;10036;47.812;9.274;2022-09-12T08:09:00;14.00;99.90
19755;DHT22;10036;47.812;9.274;2022-09-12T08:11:28;14.00;99.90
19755;DHT22;10036;47.812;9.274;2022-09-12T08:13:56;14.10;99.90
19755;DHT22;10036;47.812;9.274;2022-09-12T08:16:25;14.20;99.90
19755;DHT22;10036;47.812;9.274;2022-09-12T08:18:52;14.30;99.90
19755;DHT22;10036;47.812;9.274;2022-09-12T08:21:20;14.40;99.90
19755;DHT22;10036;47.812;9.274;2022-09-12T08:23:52;14.50;99.90
19755;DHT22;10036;47.812;9.274;2022-09-12T08:26:20;14.60;99.90
19755;DHT22;10036;47.812;9.274;2022-09-12T08:28:48;14.70;99.90
19755;DHT22;10036;47.812;9.274;2022-09-12T08:31:16;14.70;99.90
19755;DHT22;10036;47.812;9.274;2022-09-12T08:33:44;14.80;99.90
19755;DHT22;10036;47.812;9.274;2022-09-12T08:36:12;14.90;99.90
19755;DHT22;10036;47.812;9.274;2022-09-12T08:38:41;14.90;99.90
19755;DHT22;10036;47.812;9.274;2022-09-12T08:41:14;15.00;99.90
19755;DHT22;10036;47.812;9.274;2022-09-12T08:44:15;15.10;99.90
19755;DHT22;10036;47.812;9.274;2022-09-12T08:46:52;15.20;99.90
19755;DHT22;10036;47.812;9.274;2022-09-12T08:49:26;15.20;99.90
19755;DHT22;10036;47.812;9.274;2022-09-12T08:51:57;15.30;99.90
19755;DHT22;10036;47.812;9.274;2022-09-12T08:54:27;15.40;99.90
19755;DHT22;10036;47.812;9.274;2022-09-12T08:57:00;15.60;99.90
19755;DHT22;10036;47.812;9.274;2022-09-12T08:59:33;15.70;99.90
19755;DHT22;10036;47.812;9.274;2022-09-12T09:02:01;15.80;99.90
19755;DHT22;10036;47.812;9.274;2022-09-12T09:04:39;15.90;99.90
19755;DHT22;10036;47.812;9.274;2022-09-12T09:07:38;15.90;99.90
19755;DHT22;10036;47.812;9.274;2022-09-12T09:10:18;15.90;99.90
19755;DHT22;10036;47.812;9.274;2022-09-12T09:12:55;16.10;99.90
19755;DHT22;10036;47.812;9.274;2022-09-12T09:15:34;16.10;99.90
19755;DHT22;10036;47.812;9.274;2022-09-12T09:18:10;16.10;99.90
19755;DHT22;10036;47.812;9.274;2022-09-12T09:20:41;16.20;99.90
19755;DHT22;10036;47.812;9.274;2022-09-12T09:23:12;16.20;99.90
19755;DHT22;10036;47.812;9.274;2022-09-12T09:25:46;16.30;99.90
19755;DHT22;10036;47.812;9.274;2022-09-12T09:28:21;16.50;99.90
19755;DHT22;10036;47.812;9.274;2022-09-12T09:30:49;16.70;99.90
19755;DHT22;10036;47.812;9.274;2022-09-12T09:33:20;16.60;99.90
19755;DHT22;10036;47.812;9.274;2022-09-12T09:35:53;16.70;99.90
19755;DHT22;10036;47.812;9.274;2022-09-12T09:38:23;16.80;99.90
19755;DHT22;10036;47.812;9.274;2022-09-12T09:41:00;16.90;99.90
19755;DHT22;10036;47.812;9.274;2022-09-12T09:43:30;16.90;99.90
19755;DHT22;10036;47.812;9.274;2022-09-12T09:45:57;17.00;99.90
19755;DHT22;10036;47.812;9.274;2022-09-12T09:48:27;17.20;99.90
19755;DHT22;10036;47.812;9.274;2022-09-12T09:50:57;17.30;99.90
19755;DHT22;10036;47.812;9.274;2022-09-12T09:53:34;17.40;99.90
19755;DHT22;10036;47.812;9.274;2022-09-12T09:56:04;17.40;99.90
19755;DHT22;10036;47.812;9.274;2022-09-12T09:58:34;17.50;99.90
19755;DHT22;10036;47.812;9.274;2022-09-12T10:01:03;17.50;99.90
19755;DHT22;10036;47.812;9.274;2022-09-12T10:03:33;17.60;99.90
19755;DHT22;10036;47.812;9.274;2022-09-12T10:06:06;17.60;99.90
19755;DHT22;10036;47.812;9.274;2022-09-12T10:08:35;17.70;99.90
19755;DHT22;10036;47.812;9.274;2022-09-12T10:11:06;17.80;99.90
19755;DHT22;10036;47.812;9.274;2022-09-12T10:13:37;17.90;99.90
19755;DHT22;10036;47.812;9.274;2022-09-12T10:16:15;18.00;99.90
19755;DHT22;10036;47.812;9.274;2022-09-12T10:18:43;18.10;99.90
19755;DHT22;10036;47.812;9.274;2022-09-12T10:21:22;18.20;99.90
19755;DHT22;10036;47.812;9.274;2022-09-12T10:23:56;18.20;99.90
19755;DHT22;10036;47.812;9.274;2022-09-12T10:26:26;18.40;99.90
19755;DHT22;10036;47.812;9.274;2022-09-12T10:29:03;18.40;99.90
19755;DHT22;10036;47.812;9.274;2022-09-12T10:31:40;18.50;99.90
19755;DHT22;10036;47.812;9.274;2022-09-12T10:34:19;18.70;99.90
19755;DHT22;10036;47.812;9.274;2022-09-12T10:36:47;18.70;99.90
19755;DHT22;10036;47.812;9.274;2022-09-12T10:39:17;18.80;99.90
19755;DHT22;10036;47.812;9.274;2022-09-12T10:41:45;18.90;99.90
19755;DHT22;10036;47.812;9.274;2022-09-12T10:44:16;19.00;99.90
19755;DHT22;10036;47.812;9.274;2022-09-12T10:46:43;19.10;99.90
19755;DHT22;10036;47.812;9.274;2022-09-12T10:49:25;19.10;99.90
19755;DHT22;10036;47.812;9.274;2022-09-12T10:51:53;19.20;99.90
19755;DHT22;10036;47.812;9.274;2022-09-12T10:54:22;19.20;99.90
19755;DHT22;10036;47.812;9.274;2022-09-12T10:57:02;19.40;99.90
19755;DHT22;10036;47.812;9.274;2022-09-12T10:59:43;19.40;99.90
19755;DHT22;10036;47.812;9.274;2022-09-12T11:02:25;19.50;99.90
19755;DHT22;10036;47.812;9.274;2022-09-12T11:04:59;19.60;99.90
19755;DHT22;10036;47.812;9.274;2022-09-12T11:07:38;19.80;99.90
19755;DHT22;10036;47.812;9.274;2022-09-12T11:10:31;19.80;99.90
19755;DHT22;10036;47.812;9.274;2022-09-12T11:13:11;19.90;99.90
19755;DHT22;10036;47.812;9.274;2022-09-12T11:16:09;20.10;99.90
19755;DHT22;10036;47.812;9.274;2022-09-12T11:18:54;20.30;99.90
19755;DHT22;10036;47.812;9.274;2022-09-12T11:21:38;20.50;99.90
19755;DHT22;10036;47.812;9.274;2022-09-12T11:27:17;20.70;99.90
19755;DHT22;10036;47.812;9.274;2022-09-12T11:29:49;20.80;99.90
19755;DHT22;10036;47.812;9.274;2022-09-12T11:32:39;20.80;99.90
19755;DHT22;10036;47.812;9.274;2022-09-12T11:35:17;21.00;99.90
19755;DHT22;10036;47.812;9.274;2022-09-12T11:37:58;21.10;99.90
19755;DHT22;10036;47.812;9.274;2022-09-12T11:40:36;21.10;99.90
19755;DHT22;10036;47.812;9.274;2022-09-12T11:43:09;21.20;99.90
19755;DHT22;10036;47.812;9.274;2022-09-12T11:45:41;21.10;99.90
19755;DHT22;10036;47.812;9.274;2022-09-12T11:48:28;21.10;99.90
19755;DHT22;10036;47.812;9.274;2022-09-12T11:50:57;21.10;99.90
19755;DHT22;10036;47.812;9.274;2022-09-12T11:53:29;21.20;99.90
19755;DHT22;10036;47.812;9.274;2022-09-12T11:56:03;21.40;99.90
19755;DHT22;10036;47.812;9.274;2022-09-12T11:58:31;21.40;99.90
19755;DHT22;10036;47.812;9.274;2022-09-12T12:01:10;21.40;99.90
19755;DHT22;10036;47.812;9.274;2022-09-12T12:03:42;21.40;99.90
19755;DHT22;10036;47.812;9.274;2022-09-12T12:06:12;21.40;99.90
19755;DHT22;10036;47.812;9.274;2022-09-12T12:08:42;21.60;99.90
19755;DHT22;10036;47.812;9.274;2022-09-12T12:11:26;21.70;99.90
19755;DHT22;10036;47.812;9.274;2022-09-12T12:13:57;21.70;99.90
19755;DHT22;10036;47.812;9.274;2022-09-12T12:16:26;21.70;99.90
19755;DHT22;10036;47.812;9.274;2022-09-12T12:18:57;21.70;99.90
19755;DHT22;10036;47.812;9.274;2022-09-12T12:21:36;21.70;99.90
19755;DHT22;10036;47.812;9.274;2022-09-12T12:24:19;21.70;99.90
19755;DHT22;10036;47.812;9.274;2022-09-12T12:26:57;21.80;99.90
19755;DHT22;10036;47.812;9.274;2022-09-12T12:29:41;22.00;99.90
19755;DHT22;10036;47.812;9.274;2022-09-12T12:32:19;22.00;99.90
19755;DHT22;10036;47.812;9.274;2022-09-12T12:34:48;22.00;99.90
19755;DHT22;10036;47.812;9.274;2022-09-12T12:37:49;22.00;99.90
19755;DHT22;10036;47.812;9.274;2022-09-12T12:40:23;22.10;99.90
19755;DHT22;10036;47.812;9.274;2022-09-12T12:48:49;22.10;99.90
19755;DHT22;10036;47.812;9.274;2022-09-12T12:54:48;22.20;99.90
19755;DHT22;10036;47.812;9.274;2022-09-12T12:57:26;22.30;99.90
19755;DHT22;10036;47.812;9.274;2022-09-12T12:59:57;22.30;99.90
19755;DHT22;10036;47.812;9.274;2022-09-12T13:02:29;22.20;99.90
19755;DHT22;10036;47.812;9.274;2022-09-12T13:04:58;22.30;99.90
19755;DHT22;10036;47.812;9.274;2022-09-12T13:07:30;22.40;99.90
19755;DHT22;10036;47.812;9.274;2022-09-12T13:10:00;22.40;99.90
19755;DHT22;10036;47.812;9.274;2022-09-12T13:12:30;22.40;99.90
19755;DHT22;10036;47.812;9.274;2022-09-12T13:14:58;22.50;99.90
19755;DHT22;10036;47.812;9.274;2022-09-12T13:17:33;22.50;99.90
19755;DHT22;10036;47.812;9.274;2022-09-12T13:20:18;22.50;99.90
19755;DHT22;10036;47.812;9.274;2022-09-12T13:22:50;22.50;99.90
19755;DHT22;10036;47.812;9.274;2022-09-12T13:25:22;22.60;99.90
19755;DHT22;10036;47.812;9.274;2022-09-12T13:28:00;22.70;99.90
19755;DHT22;10036;47.812;9.274;2022-09-12T13:30:30;22.70;99.90
19755;DHT22;10036;47.812;9.274;2022-09-12T13:33:01;22.80;99.90
19755;DHT22;10036;47.812;9.274;2022-09-12T13:35:46;22.80;99.90
19755;DHT22;10036;47.812;9.274;2022-09-12T13:38:19;22.80;99.90
19755;DHT22;10036;47.812;9.274;2022-09-12T13:41:04;22.80;99.90
19755;DHT22;10036;47.812;9.274;2022-09-12T13:43:38;23.00;99.90
19755;DHT22;10036;47.812;9.274;2022-09-12T13:46:07;23.10;99.90
19755;DHT22;10036;47.812;9.274;2022-09-12T13:48:35;23.20;99.90
19755;DHT22;10036;47.812;9.274;2022-09-12T13:51:03;23.30;99.90
19755;DHT22;10036;47.812;9.274;2022-09-12T13:53:38;23.40;99.90
19755;DHT22;10036;47.812;9.274;2022-09-12T13:56:15;23.60;99.90
19755;DHT22;10036;47.812;9.274;2022-09-12T13:58:50;23.60;99.90
19755;DHT22;10036;47.812;9.274;2022-09-12T14:01:19;23.70;99.90
19755;DHT22;10036;47.812;9.274;2022-09-12T14:03:49;23.80;99.90
19755;DHT22;10036;47.812;9.274;2022-09-12T14:06:40;23.90;99.90
19755;DHT22;10036;47.812;9.274;2022-09-12T14:09:12;24.00;99.90
19755;DHT22;10036;47.812;9.274;2022-09-12T14:11:41;24.20;99.90
19755;DHT22;10036;47.812;9.274;2022-09-12T14:14:18;24.40;99.90
19755;DHT22;10036;47.812;9.274;2022-09-12T14:16:46;24.40;99.90
19755;DHT22;10036;47.812;9.274;2022-09-12T14:19:13;24.60;99.90
19755;DHT22;10036;47.812;9.274;2022-09-12T14:21:45;24.60;99.90
19755;DHT22;10036;47.812;9.274;2022-09-12T14:24:12;24.90;99.90
19755;DHT22;10036;47.812;9.274;2022-09-12T14:26:41;25.00;99.90
19755;DHT22;10036;47.812;9.274;2022-09-12T14:29:14;25.20;99.90
19755;DHT22;10036;47.812;9.274;2022-09-12T14:31:42;25.20;99.90
19755;DHT22;10036;47.812;9.274;2022-09-12T14:34:12;25.10;99.90
19755;DHT22;10036;47.812;9.274;2022-09-12T14:36:42;25.00;99.90
19755;DHT22;10036;47.812;9.274;2022-09-12T14:39:23;25.20;99.90
19755;DHT22;10036;47.812;9.274;2022-09-12T14:42:03;25.10;99.90
19755;DHT22;10036;47.812;9.274;2022-09-12T14:44:32;25.10;99.90
19755;DHT22;10036;47.812;9.274;2022-09-12T14:47:10;25.40;99.90
19755;DHT22;10036;47.812;9.274;2022-09-12T14:49:38;25.40;99.90
19755;DHT22;10036;47.812;9.274;2022-09-12T14:52:23;25.40;99.90
19755;DHT22;10036;47.812;9.274;2022-09-12T14:54:59;25.30;99.90
19755;DHT22;10036;47.812;9.274;2022-09-12T14:57:36;25.50;99.90
19755;DHT22;10036;47.812;9.274;2022-09-12T15:00:19;25.50;99.90
19755;DHT22;10036;47.812;9.274;2022-09-12T15:02:47;25.40;99.90
19755;DHT22;10036;47.812;9.274;2022-09-12T15:05:17;25.50;99.90
19755;DHT22;10036;47.812;9.274;2022-09-12T15:07:52;25.50;99.90
19755;DHT22;10036;47.812;9.274;2022-09-12T15:10:21;25.50;99.90
19755;DHT22;10036;47.812;9.274;2022-09-12T15:13:04;25.40;99.90
19755;DHT22;10036;47.812;9.274;2022-09-12T15:15:37;25.30;99.90
19755;DHT22;10036;47.812;9.274;2022-09-12T15:18:05;25.30;99.90
19755;DHT22;10036;47.812;9.274;2022-09-12T15:20:32;25.30;99.90
19755;DHT22;10036;47.812;9.274;2022-09-12T15:22:59;25.30;99.90
19755;DHT22;10036;47.812;9.274;2022-09-12T15:25:26;25.20;99.90
19755;DHT22;10036;47.812;9.274;2022-09-12T15:27:54;25.30;99.90
19755;DHT22;10036;47.812;9.274;2022-09-12T15:30:21;25.30;99.90
19755;DHT22;10036;47.812;9.274;2022-09-12T15:32:48;25.30;99.90
19755;DHT22;10036;47.812;9.274;2022-09-12T15:35:17;25.30;99.90
19755;DHT22;10036;47.812;9.274;2022-09-12T15:37:44;25.20;99.90
19755;DHT22;10036;47.812;9.274;2022-09-12T15:40:11;25.10;99.90
19755;DHT22;10036;47.812;9.274;2022-09-12T15:42:39;25.30;99.90
19755;DHT22;10036;47.812;9.274;2022-09-12T15:45:14;25.20;99.90
19755;DHT22;10036;47.812;9.274;2022-09-12T15:47:43;25.10;99.90
19755;DHT22;10036;47.812;9.274;2022-09-12T15:50:10;25.00;99.90
19755;DHT22;10036;47.812;9.274;2022-09-12T15:52:37;24.90;99.90
19755;DHT22;10036;47.812;9.274;2022-09-12T15:55:05;24.70;99.90
19755;DHT22;10036;47.812;9.274;2022-09-12T15:57:32;24.70;99.90
19755;DHT22;10036;47.812;9.274;2022-09-12T15:59:59;24.90;99.90
19755;DHT22;10036;47.812;9.274;2022-09-12T16:02:27;24.90;99.90
19755;DHT22;10036;47.812;9.274;2022-09-12T16:04:54;25.00;99.90
19755;DHT22;10036;47.812;9.274;2022-09-12T16:07:21;25.00;99.90
19755;DHT22;10036;47.812;9.274;2022-09-12T16:09:48;24.90;99.90
19755;DHT22;10036;47.812;9.274;2022-09-12T16:12:15;25.00;99.90
19755;DHT22;10036;47.812;9.274;2022-09-12T16:14:42;24.80;99.90
19755;DHT22;10036;47.812;9.274;2022-09-12T16:17:09;24.70;99.90